Braithwaite, Louisiana
Current Conditions -  °F | °C
As of 8:55 PM on Friday 19 Dec 2014 (Local Time) from KNBG Reporting Station
Light Rain Light Rain  
Wind Chill: 51°   Ceiling: 800
Heat Index: 51°   Visibility: 5mi
Dew Point: 50°   Wind: 13mph
Humidity: 96%   Direction: 40°NE
Pressure: 30.07"   Gusts: 20mph
Location:  29.87°N, 89.94°W
Report Text: KNBG 200255Z 04011G17KT 5SM -RA BR OVC008 11/10 A3007 RMK AO2 RAB18 SLP183 P0002 60002 T01060100 50006 $
Loading
Personal Weather Stations






























Interactive Weather Map New forecast layout! Learn more

10-Day Weather Forecast

Advertisements
Track Severe Weather on mobile